Home > Products > Valid Products > TAF

000
FTUS46 KSGX 081000 AAA
TAFONT
TAF AMD
KONT 081000Z 0810/0912 05015G25KT P6SM SKC
     FM081200 04030G40KT P6SM SKC
     FM082200 04020G30KT P6SM SKC
     FM090400 03011G18KT P6SM SKC
     FM091000 VRB05KT P6SM SKC=



000
FTUS46 KSGX 080958 AAA
TAFSAN
TAF AMD
KSAN 080958Z 0810/0912 VRB04KT P6SM SKC
     FM082000 30009KT P6SM SKC
     FM090200 VRB04KT P6SM SKC=



000
FTUS46 KSGX 080827 AAA
TAFSNA
TAF AMD
KSNA 080827Z 0808/0906 VRB04KT P6SM SKC WS010/05030KT
     FM081100 04015G25KT P6SM SKC
      TEMPO 0816/0820 05020G30KT
     FM082300 05010KT P6SM SKC=



000
FTUS46 KSGX 080530
TAFSAN
TAF
KSAN 080530Z 0806/0912 VRB04KT P6SM SKC
     FM082000 30009KT P6SM SKC
     FM090200 VRB04KT P6SM SKC=



000
FTUS46 KSGX 080530
TAFSNA
TAF
KSNA 080530Z 0806/0906 VRB04KT P6SM SKC WS010/05030KT
     FM080800 04015G25KT P6SM SKC
      TEMPO 0816/0820 05020G30KT
     FM082300 05010KT P6SM SKC=



000
FTUS46 KSGX 080530
TAFPSP
TAF
KPSP 080530Z 0806/0906 33008KT P6SM SKC WS015/04020KT
     FM080800 30011KT P6SM SKC
     FM081800 35009KT P6SM SKC
     FM090300 29008KT P6SM SKC=



000
FTUS46 KSGX 080530
TAFONT
TAF
KONT 080530Z 0806/0912 05015G25KT P6SM SKC
     FM081000 04030G40KT P6SM SKC
     FM082200 04020G30KT P6SM SKC
     FM090400 03011G18KT P6SM SKC
     FM091000 VRB05KT P6SM SKC=



000
FTUS46 KSGX 080530
TAFCRQ
TAF
KCRQ 080530Z 0806/0906 VRB04KT P6SM SKC
     FM080800 06007KT P6SM SKC WS015/09025KT
     FM081500 10011G18KT P6SM SKC
     FM082200 VRB05KT P6SM SKC=



000
FTUS46 KSGX 080530
TAFTRM
TAF
KTRM 080530Z 0806/0906 34006KT P6SM SKC
     FM081700 31010KT P6SM SKC
     FM082300 VRB06KT P6SM SKC=



000
FTUS46 KSGX 080530
TAFSNA
TAF
KSNA 080530Z 0806/0906 VRB04KT P6SM SKC WS010/05030KT
     FM080800 04015G25KT P6SM SKC
      TEMPO 0816/0820 05020G30KT
     FM082300 05010KT P6SM SKC=



000
FTUS46 KSGX 080530
TAFCRQ
TAF
KCRQ 080530Z 0806/0906 VRB04KT P6SM SKC
     FM080800 06007KT P6SM SKC WS015/09025KT
     FM081500 10011G18KT P6SM SKC
     FM082200 VRB05KT P6SM SKC=



000
FTUS46 KSGX 080530
TAFONT
TAF
KONT 080530Z 0806/0912 05015G25KT P6SM SKC
     FM081000 04030G40KT P6SM SKC
     FM082200 04020G30KT P6SM SKC
     FM090400 03011G18KT P6SM SKC
     FM091000 VRB05KT P6SM SKC=



000
FTUS46 KSGX 080530
TAFPSP
TAF
KPSP 080530Z 0806/0906 33008KT P6SM SKC WS015/04020KT
     FM080800 30011KT P6SM SKC
     FM081800 35009KT P6SM SKC
     FM090300 29008KT P6SM SKC=



000
FTUS46 KSGX 080530
TAFTRM
TAF
KTRM 080530Z 0806/0906 34006KT P6SM SKC
     FM081700 31010KT P6SM SKC
     FM082300 VRB06KT P6SM SKC=



000
FTUS46 KSGX 080530
TAFSAN
TAF
KSAN 080530Z 0806/0912 VRB04KT P6SM SKC
     FM082000 30009KT P6SM SKC
     FM090200 VRB04KT P6SM SKC=



000
FTUS46 KSGX 080309 AAA
TAFSAN
TAF AMD
KSAN 080309Z 0803/0906 VRB04KT P6SM SKC
     FM082000 30009KT P6SM SKC
     FM090200 VRB04KT P6SM SKC=



000
FTUS46 KSGX 072320
TAFPSP
TAF
KPSP 072320Z 0800/0824 VRB06KT P6SM SKC WS015/04020KT
     FM080800 32011KT P6SM SKC
     FM081600 VRB06KT P6SM SKC=



000
FTUS46 KSGX 072320
TAFONT
TAF
KONT 072320Z 0800/0906 05015G25KT P6SM SKC
     FM081000 04030G40KT P6SM SKC
     FM082200 04020G30KT P6SM SKC
     FM090400 03012G20KT P6SM SKC=



000
FTUS46 KSGX 072320
TAFCRQ
TAF
KCRQ 072320Z 0800/0824 VRB04KT P6SM SKC
     FM080800 06007KT P6SM SKC WS015/09025KT
     FM081900 10011G18KT P6SM SKC=



000
FTUS46 KSGX 072320
TAFTRM
TAF
KTRM 072320Z 0800/0824 VRB06KT P6SM SKC
     FM081200 33010KT P6SM SKC
     FM082200 VRB06KT P6SM SKC=



000
FTUS46 KSGX 072320
TAFSNA
TAF
KSNA 072320Z 0800/0824 04009G18KT P6SM SKC
     FM080200 VRB04KT P6SM SKC WS010/05030KT
     FM080800 04015G25KT P6SM SKC
      TEMPO 0816/0820 06020G30KT=



000
FTUS46 KSGX 072320
TAFSAN
TAF
KSAN 072320Z 0800/0906 30010KT P6SM SKC
     FM080200 VRB04KT P6SM SKC
     FM082000 30009KT P6SM SKC
     FM090200 VRB04KT P6SM SKC=



000
FTUS46 KSGX 072145 AAA
TAFONT
TAF AMD
KONT 072145Z 0722/0824 05015G25KT P6SM SKC
     FM080400 04025G35KT P6SM SKC
     FM082100 04015G25KT P6SM SKC=



000
FTUS46 KSGX 072104 AAA
TAFSAN
TAF AMD
KSAN 072104Z 0721/0824 30010KT P6SM SKC
     FM080200 VRB04KT P6SM SKC
     FM082000 30009KT P6SM SKC=



000
FTUS46 KSGX 071743
TAFSAN
TAF
KSAN 071743Z 0718/0824 VRB04KT P6SM SKC
     FM072000 30009KT P6SM SKC
     FM080200 VRB04KT P6SM SKC
     FM082000 30009KT P6SM SKC=



000
FTUS46 KSGX 071743
TAFCRQ
TAF
KCRQ 071743Z 0718/0818 27007KT P6SM SKC
     FM080000 VRB04KT P6SM SKC
     FM080800 06005KT P6SM SKC WS015/09025KT=



000
FTUS46 KSGX 071743
TAFPSP
TAF
KPSP 071743Z 0718/0818 VRB06KT P6SM SKC
     FM072300 VRB06KT P6SM SKC WS015/02025KT
     FM080400 32009KT P6SM SKC=



000
FTUS46 KSGX 071743
TAFTRM
TAF
KTRM 071743Z 0718/0818 VRB06KT P6SM SKC
     FM080600 33010KT P6SM SKC=



000
FTUS46 KSGX 071743
TAFONT
TAF
KONT 071743Z 0718/0824 VRB06KT P6SM SKC WS020/03025KT
     FM072100 VRB06KT P6SM SKC WS010/03035KT
     FM080400 04025G35KT P6SM SKC
     FM082100 04015G25KT P6SM SKC=



000
FTUS46 KSGX 071743
TAFSNA
TAF
KSNA 071743Z 0718/0818 VRB06KT P6SM SKC WS020/05025KT
     FM072200 04009G18KT P6SM SKC
     FM080200 VRB04KT P6SM SKC WS010/05030KT
     FM080700 04012G20KT P6SM SKC=



000
FTUS46 KSGX 071743
TAFTRM
TAF
KTRM 071743Z 0718/0818 VRB06KT P6SM SKC
     FM080600 33010KT P6SM SKC=



000
FTUS46 KSGX 071743
TAFSAN
TAF
KSAN 071743Z 0718/0824 VRB04KT P6SM SKC
     FM072000 30009KT P6SM SKC
     FM080200 VRB04KT P6SM SKC
     FM082000 30009KT P6SM SKC=



000
FTUS46 KSGX 071743
TAFSNA
TAF
KSNA 071743Z 0718/0818 VRB06KT P6SM SKC WS020/05025KT
     FM072200 04009G18KT P6SM SKC
     FM080200 VRB04KT P6SM SKC WS010/05030KT
     FM080700 04012G20KT P6SM SKC=



000
FTUS46 KSGX 071743
TAFONT
TAF
KONT 071743Z 0718/0824 VRB06KT P6SM SKC WS020/03025KT
     FM072100 VRB06KT P6SM SKC WS010/03035KT
     FM080400 04025G35KT P6SM SKC
     FM082100 04015G25KT P6SM SKC=



000
FTUS46 KSGX 071743
TAFPSP
TAF
KPSP 071743Z 0718/0818 VRB06KT P6SM SKC
     FM072300 VRB06KT P6SM SKC WS015/02025KT
     FM080400 32009KT P6SM SKC=



000
FTUS46 KSGX 071743
TAFCRQ
TAF
KCRQ 071743Z 0718/0818 27007KT P6SM SKC
     FM080000 VRB04KT P6SM SKC
     FM080800 06005KT P6SM SKC WS015/09025KT=



000
FTUS46 KSGX 071510 AAA
TAFSAN
TAF AMD
KSAN 071510Z 0715/0818 VRB04KT P6SM SKC
     FM072000 30009KT P6SM SKC
     FM080300 VRB04KT P6SM SKC=



000
FTUS46 KSGX 071510 AAA
TAFSAN
TAF AMD
KSAN 071510Z 0715/0818 VRB04KT P6SM SKC
     FM072000 30009KT P6SM SKC
     FM080300 VRB04KT P6SM SKC=



000
FTUS46 KSGX 071136
TAFPSP
TAF
KPSP 071136Z 0712/0812 VRB06KT P6SM SKC
     FM072300 35009KT P6SM SKC=



000
FTUS46 KSGX 071136
TAFCRQ
TAF
KCRQ 071136Z 0712/0812 06007KT P6SM SKC
     FM071900 27007KT P6SM SKC
     FM080600 06009KT P6SM SKC=



000
FTUS46 KSGX 071136
TAFSAN
TAF
KSAN 071136Z 0712/0818 VRB04KT P6SM SKC
     FM072000 30009KT P6SM SKC
     FM080300 VRB04KT P6SM SKC=



000
FTUS46 KSGX 071136
TAFTRM
TAF
KTRM 071136Z 0712/0812 VRB06KT P6SM SKC
     FM080100 35010KT P6SM SKC=



000
FTUS46 KSGX 071136
TAFSNA
TAF
KSNA 071136Z 0712/0812 VRB03KT P6SM SKC WS010/06020KT
     FM072200 23007KT P6SM SKC WS010/06020KT
     FM080000 04009KT P6SM SKC
     FM080300 06015G25KT P6SM SKC=



000
FTUS46 KSGX 071136
TAFONT
TAF
KONT 071136Z 0712/0818 VRB05KT P6SM SKC WS020/02030KT
     FM071900 03015G25KT P6SM SKC
     FM080600 05025G35KT P6SM SKC=



000
FTUS46 KSGX 070822 AAA
TAFSAN
TAF AMD
KSAN 070822Z 0708/0812 VRB04KT P6SM SKC
     FM072000 30009KT P6SM SKC
     FM080200 VRB04KT P6SM SKC=



000
FTUS46 KSGX 070822 AAA
TAFSAN
TAF AMD
KSAN 070822Z 0708/0812 VRB04KT P6SM SKC
     FM072000 30009KT P6SM SKC
     FM080200 VRB04KT P6SM SKC=



000
FTUS46 KSGX 070520
TAFSAN
TAF
KSAN 070520Z 0706/0812 VRB04KT P6SM SKC
     FM072100 31009KT P6SM SKC
     FM080200 VRB04KT P6SM SKC=



000
FTUS46 KSGX 070520
TAFSNA
TAF
KSNA 070520Z 0706/0806 VRB03KT P6SM SKC WS010/06020KT
     FM071900 06012G22KT P6SM SKC
     FM080000 04009KT P6SM SKC=



000
FTUS46 KSGX 070520
TAFPSP
TAF
KPSP 070520Z 0706/0806 VRB06KT P6SM SKC=



000
FTUS46 KSGX 070520
TAFCRQ
TAF
KCRQ 070520Z 0706/0806 VRB04KT P6SM SKC
     FM071200 06009KT P6SM SKC
     FM071900 27007KT P6SM SKC
     FM080100 VRB03KT P6SM SKC=



000
FTUS46 KSGX 070520
TAFTRM
TAF
KTRM 070520Z 0706/0806 VRB06KT P6SM SKC=



000
FTUS46 KSGX 070520
TAFONT
TAF
KONT 070520Z 0706/0812 VRB05KT P6SM SKC WS020/02030KT
     FM071900 03015G25KT P6SM SKC
     FM080600 02025G35KT P6SM SKC=



000
FTUS46 KSGX 070319 AAA
TAFSAN
TAF AMD
KSAN 070319Z 0703/0806 VRB04KT P6SM SKC
     FM072100 31009KT P6SM SKC
     FM080200 VRB03KT P6SM SKC=



000
FTUS46 KSGX 070319 AAA
TAFSAN
TAF AMD
KSAN 070319Z 0703/0806 VRB04KT P6SM SKC
     FM072100 31009KT P6SM SKC
     FM080200 VRB03KT P6SM SKC=



000
FTUS46 KSGX 062328
TAFSAN
TAF
KSAN 062328Z 0700/0806 30010KT P6SM SKC
     FM070100 VRB04KT P6SM SKC
     FM072100 31009KT P6SM SKC
     FM080200 VRB03KT P6SM SKC=



000
FTUS46 KSGX 062328
TAFTRM
TAF
KTRM 062328Z 0700/0724 VRB06KT P6SM SKC=



000
FTUS46 KSGX 062328
TAFSNA
TAF
KSNA 062328Z 0700/0724 23005KT P6SM SKC WS010/06025KT
     FM070700 05008KT P6SM SKC
     FM071800 06015G25KT P6SM SKC=



000
FTUS46 KSGX 062328
TAFCRQ
TAF
KCRQ 062328Z 0700/0724 28006KT P6SM SKC
     FM070200 VRB03KT P6SM SKC
     FM070700 05005KT P6SM SKC
     FM071200 07010KT P6SM SKC
     FM071800 27007KT P6SM SKC=



000
FTUS46 KSGX 062328
TAFSNA
TAF
KSNA 062328Z 0700/0724 23005KT P6SM SKC WS010/06025KT
     FM070700 05008KT P6SM SKC
     FM071800 06015G25KT P6SM SKC=



000
FTUS46 KSGX 062328
TAFCRQ
TAF
KCRQ 062328Z 0700/0724 28006KT P6SM SKC
     FM070200 VRB03KT P6SM SKC
     FM070700 05005KT P6SM SKC
     FM071200 07010KT P6SM SKC
     FM071800 27007KT P6SM SKC=



000
FTUS46 KSGX 062328
TAFSAN
TAF
KSAN 062328Z 0700/0806 30010KT P6SM SKC
     FM070100 VRB04KT P6SM SKC
     FM072100 31009KT P6SM SKC
     FM080200 VRB03KT P6SM SKC=



000
FTUS46 KSGX 062328
TAFPSP
TAF
KPSP 062328Z 0700/0724 VRB06KT P6SM SKC=



000
FTUS46 KSGX 062328
TAFONT
TAF
KONT 062328Z 0700/0806 27010KT P6SM SKC
     FM070300 VRB05KT P6SM SKC
     FM071000 VRB05KT P6SM SKC WS020/03025KT
     FM071900 03020G30KT P6SM SKC=



000
FTUS46 KSGX 062328
TAFPSP
TAF
KPSP 062328Z 0700/0724 VRB06KT P6SM SKC=



000
FTUS46 KSGX 062328
TAFTRM
TAF
KTRM 062328Z 0700/0724 VRB06KT P6SM SKC=



000
FTUS46 KSGX 062328
TAFONT
TAF
KONT 062328Z 0700/0806 27010KT P6SM SKC
     FM070300 VRB05KT P6SM SKC
     FM071000 VRB05KT P6SM SKC WS020/03025KT
     FM071900 03020G30KT P6SM SKC=



000
FTUS46 KSGX 062101 AAA
TAFSAN
TAF AMD
KSAN 062101Z 0621/0724 30010KT P6SM SKC
     FM070100 VRB04KT P6SM SKC
     FM072100 30009KT P6SM SKC=



000
FTUS46 KSGX 062101 AAA
TAFSAN
TAF AMD
KSAN 062101Z 0621/0724 30010KT P6SM SKC
     FM070100 VRB04KT P6SM SKC
     FM072100 30009KT P6SM SKC=



000
FTUS46 KSGX 062055 AAA
TAFSNA
TAF AMD
KSNA 062055Z 0621/0718 24007KT P6SM SKC
     FM070100 VRB05KT P6SM SKC WS010/06025KT=



000
FTUS46 KSGX 061736
TAFONT
TAF
KONT 061736Z 0618/0724 VRB06KT P6SM SKC WS020/03030KT
     FM062000 27010KT P6SM SKC
     FM070300 VRB05KT P6SM SKC
     FM071300 VRB05KT P6SM SKC WS020/03025KT
     FM071800 04020G30KT P6SM SKC=



000
FTUS46 KSGX 061736
TAFTRM
TAF
KTRM 061736Z 0618/0718 VRB05KT P6SM SKC
     FM070300 33007KT P6SM SKC=



000
FTUS46 KSGX 061736
TAFSNA
TAF
KSNA 061736Z 0618/0718 21006KT P6SM SKC WS020/06020KT
     FM062000 05010G20KT P6SM SKC
     FM070100 VRB05KT P6SM SKC WS010/06025KT=



000
FTUS46 KSGX 061736
TAFSAN
TAF
KSAN 061736Z 0618/0724 29006KT P6SM SKC
     FM062100 30010KT P6SM SKC
     FM070100 VRB04KT P6SM SKC
     FM072100 30009KT P6SM SKC=



000
FTUS46 KSGX 061736
TAFPSP
TAF
KPSP 061736Z 0618/0718 VRB05KT P6SM SKC
     FM070200 30007KT P6SM SKC=



000
FTUS46 KSGX 061736
TAFCRQ
TAF
KCRQ 061736Z 0618/0718 27007KT P6SM SKC
     FM070200 VRB03KT P6SM SKC
     FM070700 07007KT P6SM SKC=



000
FTUS46 KSGX 061534 AAA
TAFONT
TAF AMD
KONT 061534Z 0616/0718 VRB05KT P6SM SKC WS015/02025KT
     FM061800 VRB06KT P6SM SKC
     FM062000 26010KT P6SM SKC
     FM070300 VRB05KT P6SM SKC=



000
FTUS46 KSGX 061528 AAA
TAFSAN
TAF AMD
KSAN 061528Z 0615/0718 VRB04KT P6SM SKC
     FM061900 27007KT P6SM SKC
     FM062100 30010KT P6SM SKC
     FM070100 VRB03KT P6SM SKC=



000
FTUS46 KSGX 061257
TAFCRQ
TAF
KCRQ 061257Z 0612/0712 VRB03KT P6SM SKC WS010/07025KT
     FM061900 27007KT P6SM SKC
     FM070200 VRB03KT P6SM SKC
     FM070700 07010KT P6SM SKC=



000
FTUS46 KSGX 061257
TAFSAN
TAF
KSAN 061257Z 0612/0718 VRB04KT P6SM SKC
     FM061900 27007KT P6SM SKC
     FM062100 30010KT P6SM SKC
     FM070200 VRB03KT P6SM SKC=



000
FTUS46 KSGX 061257
TAFTRM
TAF
KTRM 061257Z 0612/0712 34006KT P6SM SKC
     FM061500 VRB05KT P6SM SKC
     FM070700 34006KT P6SM SKC=



000
FTUS46 KSGX 061257
TAFPSP
TAF
KPSP 061257Z 0612/0712 30006KT P6SM SKC
     FM061600 VRB05KT P6SM SKC
     FM070200 30007KT P6SM SKC=



000
FTUS46 KSGX 061257
TAFSNA
TAF
KSNA 061257Z 0612/0712 06012G20KT P6SM SKC
     FM061500 28007KT P6SM SKC WS010/07025KT
     FM061900 28007KT P6SM SKC
     FM070300 VRB05KT P6SM SKC WS010/06025KT=



000
FTUS46 KSGX 061257
TAFONT
TAF
KONT 061257Z 0612/0718 VRB05KT P6SM SKC
     FM062000 26010KT P6SM SKC
     FM070300 VRB05KT P6SM SKC=



000
FTUS46 KSGX 060837 AAA
TAFSAN
TAF AMD
KSAN 060837Z 0608/0712 VRB04KT P6SM FEW300
     FM061900 27007KT P6SM FEW300
     FM062100 30010KT P6SM FEW300
     FM070200 VRB03KT P6SM FEW300=



000
FTUS46 KSGX 060520
TAFPSP
TAF
KPSP 060520Z 0606/0706 VRB05KT P6SM FEW250=



000
FTUS46 KSGX 060520
TAFSNA
TAF
KSNA 060520Z 0606/0706 VRB04KT P6SM SKC WS010/08030KT
     FM061700 28007KT P6SM SKC=



000
FTUS46 KSGX 060520
TAFTRM
TAF
KTRM 060520Z 0606/0706 VRB05KT P6SM FEW250=



000
FTUS46 KSGX 060520
TAFONT
TAF
KONT 060520Z 0606/0712 07007KT P6SM FEW250 WS010/03030KT
     FM061000 04007KT P6SM SKC
     FM062000 04011G20KT P6SM SKC
     FM070200 VRB06KT P6SM SKC=



000
FTUS46 KSGX 060520
TAFSAN
TAF
KSAN 060520Z 0606/0712 VRB04KT P6SM SKC
     FM062100 31009KT P6SM SKC
     FM070200 VRB03KT P6SM SKC=



000
FTUS46 KSGX 060520
TAFCRQ
TAF
KCRQ 060520Z 0606/0706 VRB03KT P6SM SKC WS010/09030KT
     FM061700 27007KT P6SM SKC=



000
FTUS46 KSGX 060251 AAA
TAFSAN
TAF AMD
KSAN 060251Z 0603/0706 VRB04KT P6SM SKC
     FM062100 31009KT P6SM SKC
     FM070200 VRB03KT P6SM SKC=



000
FTUS46 KSGX 060251 AAA
TAFSAN
TAF AMD
KSAN 060251Z 0603/0706 VRB04KT P6SM SKC
     FM062100 31009KT P6SM SKC
     FM070200 VRB03KT P6SM SKC=



000
FTUS46 KSGX 060156 AAA
TAFSNA
TAF AMD
KSNA 060156Z 0602/0624 VRB04KT P6SM SKC WS010/08030KT
     FM061700 28007KT P6SM SKC=



000
FTUS46 KSGX 060156 AAA
TAFSNA
TAF AMD
KSNA 060156Z 0602/0624 VRB04KT P6SM SKC WS010/08030KT
     FM061700 28007KT P6SM SKC=



000
FTUS46 KSGX 052340
TAFTRM
TAF
KTRM 052340Z 0600/0624 VRB05KT P6SM FEW250=



000
FTUS46 KSGX 052340
TAFONT
TAF
KONT 052340Z 0600/0706 05011G19KT P6SM SKC
     FM060300 VRB06KT P6SM FEW250 WS010/03030KT
     FM061000 04007KT P6SM SKC=



000
FTUS46 KSGX 052340
TAFPSP
TAF
KPSP 052340Z 0600/0624 VRB05KT P6SM FEW250=



000
FTUS46 KSGX 052340
TAFSAN
TAF
KSAN 052340Z 0600/0706 31009KT P6SM SKC
     FM060200 VRB04KT P6SM SKC
     FM062100 31009KT P6SM SKC
     FM070200 VRB03KT P6SM SKC=



000
FTUS46 KSGX 052340
TAFSNA
TAF
KSNA 052340Z 0600/0624 05010G18KT P6SM SKC
     FM060400 VRB04KT P6SM SKC WS010/08030KT
     FM061700 28007KT P6SM SKC=



000
FTUS46 KSGX 052340
TAFCRQ
TAF
KCRQ 052340Z 0600/0624 28007KT P6SM SKC
     FM060200 VRB03KT P6SM SKC WS010/08030KT
     FM061700 27007KT P6SM SKC=



000
FTUS46 KSGX 052340
TAFTRM
TAF
KTRM 052340Z 0600/0624 VRB05KT P6SM FEW250=



000
FTUS46 KSGX 052340
TAFONT
TAF
KONT 052340Z 0600/0706 05011G19KT P6SM SKC
     FM060300 VRB06KT P6SM FEW250 WS010/03030KT
     FM061000 04007KT P6SM SKC=



000
FTUS46 KSGX 052340
TAFSAN
TAF
KSAN 052340Z 0600/0706 31009KT P6SM SKC
     FM060200 VRB04KT P6SM SKC
     FM062100 31009KT P6SM SKC
     FM070200 VRB03KT P6SM SKC=



000
FTUS46 KSGX 052340
TAFPSP
TAF
KPSP 052340Z 0600/0624 VRB05KT P6SM FEW250=



000
FTUS46 KSGX 052340
TAFSNA
TAF
KSNA 052340Z 0600/0624 05010G18KT P6SM SKC
     FM060400 VRB04KT P6SM SKC WS010/08030KT
     FM061700 28007KT P6SM SKC=



000
FTUS46 KSGX 052340
TAFCRQ
TAF
KCRQ 052340Z 0600/0624 28007KT P6SM SKC
     FM060200 VRB03KT P6SM SKC WS010/08030KT
     FM061700 27007KT P6SM SKC=



000
FTUS46 KSGX 052105 AAA
TAFONT
TAF AMD
KONT 052105Z 0521/0624 07011G18KT P6SM FEW250
     FM060000 04011KT P6SM FEW250
     FM060300 VRB06KT P6SM FEW250 WS015/06030KT=



000
FTUS46 KSGX 052105 AAA
TAFSAN
TAF AMD
KSAN 052105Z 0521/0624 31009KT P6SM FEW250
     FM060100 VRB04KT P6SM SKC
     FM062100 30009KT P6SM SKC=



000
FTUS46 KSGX 052105 AAA
TAFONT
TAF AMD
KONT 052105Z 0521/0624 07011G18KT P6SM FEW250
     FM060000 04011KT P6SM FEW250
     FM060300 VRB06KT P6SM FEW250 WS015/06030KT=



000
FTUS46 KSGX 052105 AAA
TAFSAN
TAF AMD
KSAN 052105Z 0521/0624 31009KT P6SM FEW250
     FM060100 VRB04KT P6SM SKC
     FM062100 30009KT P6SM SKC=



000
FTUS46 KSGX 051720
TAFPSP
TAF
KPSP 051720Z 0518/0618 VRB05KT P6SM FEW250=



000
FTUS46 KSGX 051720
TAFCRQ
TAF
KCRQ 051720Z 0518/0618 VRB04KT P6SM FEW250
     FM052000 28008KT P6SM FEW250
     FM060100 VRB03KT P6SM SKC
     FM060600 03005KT P6SM FEW250 WS012/08025KT=



000
FTUS46 KSGX 051720
TAFTRM
TAF
KTRM 051720Z 0518/0618 VRB05KT P6SM FEW250=



000
FTUS46 KSGX 051720
TAFPSP
TAF
KPSP 051720Z 0518/0618 VRB05KT P6SM FEW250=



000
FTUS46 KSGX 051720
TAFSAN
TAF
KSAN 051720Z 0518/0624 VRB03KT P6SM SCT250
     FM052100 31009KT P6SM FEW250
     FM060100 VRB04KT P6SM SKC
     FM062100 30009KT P6SM SKC=



000
FTUS46 KSGX 051720
TAFONT
TAF
KONT 051720Z 0518/0624 VRB03KT P6SM FEW250 WS015/04030KT
     FM060000 04011KT P6SM FEW250
     FM060300 VRB06KT P6SM FEW250=



000
FTUS46 KSGX 051720
TAFSNA
TAF
KSNA 051720Z 0518/0618 VRB03KT P6SM FEW250 WS015/05025KT
     FM051900 05010KT P6SM FEW250
     FM060600 VRB04KT P6SM FEW250 WS010/06030KT=



000
FTUS46 KSGX 051720
TAFCRQ
TAF
KCRQ 051720Z 0518/0618 VRB04KT P6SM FEW250
     FM052000 28008KT P6SM FEW250
     FM060100 VRB03KT P6SM SKC
     FM060600 03005KT P6SM FEW250 WS012/08025KT=



000
FTUS46 KSGX 051720
TAFTRM
TAF
KTRM 051720Z 0518/0618 VRB05KT P6SM FEW250=



000
FTUS46 KSGX 051720
TAFSAN
TAF
KSAN 051720Z 0518/0624 VRB03KT P6SM SCT250
     FM052100 31009KT P6SM FEW250
     FM060100 VRB04KT P6SM SKC
     FM062100 30009KT P6SM SKC=



000
FTUS46 KSGX 051720
TAFONT
TAF
KONT 051720Z 0518/0624 VRB03KT P6SM FEW250 WS015/04030KT
     FM060000 04011KT P6SM FEW250
     FM060300 VRB06KT P6SM FEW250=



000
FTUS46 KSGX 051720
TAFSNA
TAF
KSNA 051720Z 0518/0618 VRB03KT P6SM FEW250 WS015/05025KT
     FM051900 05010KT P6SM FEW250
     FM060600 VRB04KT P6SM FEW250 WS010/06030KT=



000
FTUS46 KSGX 051502 AAA
TAFSAN
TAF AMD
KSAN 051502Z 0515/0618 VRB03KT P6SM SCT250
     FM052100 31009KT P6SM FEW250
     FM060100 VRB04KT P6SM SKC=



000
FTUS46 KSGX 051502 AAA
TAFSAN
TAF AMD
KSAN 051502Z 0515/0618 VRB03KT P6SM SCT250
     FM052100 31009KT P6SM FEW250
     FM060100 VRB04KT P6SM SKC=



000
FTUS46 KSGX 051123
TAFCRQ
TAF
KCRQ 051123Z 0512/0612 VRB04KT P6SM SKC
     FM052000 27008KT P6SM SKC
     FM060000 VRB03KT P6SM SKC
     FM060600 03005KT P6SM SKC WS012/08025KT=



000
FTUS46 KSGX 051123
TAFSAN
TAF
KSAN 051123Z 0512/0618 VRB03KT P6SM SKC
     FM052100 31009KT P6SM SKC
     FM060100 VRB04KT P6SM SKC=



000
FTUS46 KSGX 051123
TAFSNA
TAF
KSNA 051123Z 0512/0612 VRB03KT P6SM SKC WS010/05030KT
     FM051900 05010KT P6SM SKC
     FM060200 VRB04KT P6SM SKC WS010/06030KT=



000
FTUS46 KSGX 051123
TAFPSP
TAF
KPSP 051123Z 0512/0612 VRB05KT P6SM FEW250=



000
FTUS46 KSGX 051123
TAFTRM
TAF
KTRM 051123Z 0512/0612 VRB05KT P6SM FEW250=



000
FTUS46 KSGX 051123
TAFONT
TAF
KONT 051123Z 0512/0618 VRB03KT P6SM FEW250 WS010/04030KT
     FM051600 04008KT P6SM SKC
     FM051800 04015G25KT P6SM SKC
     FM060000 04011KT P6SM SKC
     FM060300 VRB06KT P6SM SKC=



000
FTUS46 KSGX 051123
TAFSAN
TAF
KSAN 051123Z 0512/0618 VRB03KT P6SM SKC
     FM052100 31009KT P6SM SKC
     FM060100 VRB04KT P6SM SKC=



000
FTUS46 KSGX 051123
TAFCRQ
TAF
KCRQ 051123Z 0512/0612 VRB04KT P6SM SKC
     FM052000 27008KT P6SM SKC
     FM060000 VRB03KT P6SM SKC
     FM060600 03005KT P6SM SKC WS012/08025KT=



000
FTUS46 KSGX 051123
TAFTRM
TAF
KTRM 051123Z 0512/0612 VRB05KT P6SM FEW250=



000
FTUS46 KSGX 051123
TAFONT
TAF
KONT 051123Z 0512/0618 VRB03KT P6SM FEW250 WS010/04030KT
     FM051600 04008KT P6SM SKC
     FM051800 04015G25KT P6SM SKC
     FM060000 04011KT P6SM SKC
     FM060300 VRB06KT P6SM SKC=



000
FTUS46 KSGX 051123
TAFSNA
TAF
KSNA 051123Z 0512/0612 VRB03KT P6SM SKC WS010/05030KT
     FM051900 05010KT P6SM SKC
     FM060200 VRB04KT P6SM SKC WS010/06030KT=



000
FTUS46 KSGX 051123
TAFPSP
TAF
KPSP 051123Z 0512/0612 VRB05KT P6SM FEW250=



    US Dept of Commerce
    National Oceanic and Atmospheric Administration
    National Weather Service
    1325 East West Highway
    Silver Spring, MD 20910
    Page Author: NWS Internet Services Team
Disclaimer
Information Quality
Credits
Glossary
Privacy Policy
Freedom of Information Act (FOIA)
About Us
Career Opportunities